Time;durP1;ratioP1;P1;durP2;ratioP2;P2;SDS_P1;SDS_P2;PMS_P1;PMS_P2;Temp;Humidity;BMP_temperature;BMP_pressure;BME280_temperature;BME280_humidity;BME280_pressure;Samples;Min_cycle;Max_cycle;Signal;HPM_P1;HPM_P2
2021/10/17 00:00:24;;;;;;;16.27;8.30;;;11.00;99.90;;;;;;5094901;28;20101;-69
2021/10/17 00:02:50;;;;;;;16.40;9.40;;;10.90;99.90;;;;;;5094024;28;20040;-69
2021/10/17 00:05:18;;;;;;;18.95;8.23;;;10.90;99.90;;;;;;5095373;28;20506;-69
2021/10/17 00:07:45;;;;;;;13.55;8.18;;;10.90;99.90;;;;;;5094502;28;20074;-70
2021/10/17 00:10:15;;;;;;;15.00;9.30;;;10.80;99.90;;;;;;5094962;28;20040;-70
2021/10/17 00:12:41;;;;;;;18.88;8.35;;;10.80;99.90;;;;;;5095701;28;20032;-70
2021/10/17 00:15:10;;;;;;;19.77;9.07;;;10.80;99.90;;;;;;5095251;28;20036;-70
2021/10/17 00:17:36;;;;;;;15.23;8.52;;;10.80;99.90;;;;;;5093547;28;20044;-70
2021/10/17 00:20:03;;;;;;;14.13;8.70;;;10.80;99.90;;;;;;5094676;28;20040;-70
2021/10/17 00:22:28;;;;;;;20.77;9.80;;;10.80;99.90;;;;;;5095386;28;20036;-70
2021/10/17 00:24:54;;;;;;;17.42;9.85;;;10.80;99.90;;;;;;5095184;28;20039;-70
2021/10/17 00:27:19;;;;;;;16.17;8.85;;;10.80;99.90;;;;;;5095053;28;20036;-70
2021/10/17 00:29:45;;;;;;;16.70;8.48;;;10.80;99.90;;;;;;5093265;28;20044;-70
2021/10/17 00:32:13;;;;;;;14.95;9.18;;;10.80;99.90;;;;;;5093612;28;20044;-70
2021/10/17 00:34:38;;;;;;;18.10;8.77;;;10.70;99.90;;;;;;5094727;28;20047;-69
2021/10/17 00:37:04;;;;;;;16.10;8.50;;;10.70;99.90;;;;;;5094608;28;20036;-69
2021/10/17 00:39:30;;;;;;;19.55;10.13;;;10.70;99.90;;;;;;5094181;28;20519;-70
2021/10/17 00:41:57;;;;;;;14.73;9.25;;;10.60;99.90;;;;;;5094456;28;20040;-70
2021/10/17 00:44:23;;;;;;;16.63;8.98;;;10.60;99.90;;;;;;5094365;28;20119;-70
2021/10/17 00:46:50;;;;;;;14.00;9.40;;;10.60;99.90;;;;;;5094607;28;20039;-70
2021/10/17 00:49:17;;;;;;;16.25;8.00;;;10.60;99.90;;;;;;5094157;28;20396;-70
2021/10/17 00:51:45;;;;;;;18.10;8.88;;;10.60;99.90;;;;;;5093207;28;20152;-69
2021/10/17 00:54:12;;;;;;;16.88;8.70;;;10.50;99.90;;;;;;5093105;28;20043;-70
2021/10/17 00:56:39;;;;;;;11.43;7.55;;;10.50;99.90;;;;;;5094181;28;20042;-70
2021/10/17 00:59:05;;;;;;;11.77;8.30;;;10.40;99.90;;;;;;5092716;28;20468;-70
2021/10/17 01:01:30;;;;;;;14.20;8.48;;;10.40;99.90;;;;;;5093320;28;20123;-70
2021/10/17 01:03:56;;;;;;;17.38;7.82;;;10.40;99.90;;;;;;5094022;28;20372;-70
2021/10/17 01:06:22;;;;;;;14.90;9.05;;;10.40;99.90;;;;;;5094051;28;20040;-70
2021/10/17 01:08:48;;;;;;;13.02;8.02;;;10.40;99.90;;;;;;5093648;28;20472;-70
2021/10/17 01:11:14;;;;;;;26.05;8.95;;;10.30;99.90;;;;;;5092763;28;20065;-70
2021/10/17 01:13:40;;;;;;;13.95;8.52;;;10.30;99.90;;;;;;5094160;28;20050;-70
2021/10/17 01:16:06;;;;;;;18.52;9.02;;;10.30;99.90;;;;;;5093874;28;20040;-70
2021/10/17 01:18:32;;;;;;;12.05;7.68;;;10.30;99.90;;;;;;5093609;28;20105;-70
2021/10/17 01:20:58;;;;;;;16.52;8.88;;;10.30;99.90;;;;;;5092808;28;20120;-70
2021/10/17 01:23:24;;;;;;;17.33;7.70;;;10.30;99.90;;;;;;5094216;28;20119;-70
2021/10/17 01:25:50;;;;;;;14.90;8.27;;;10.30;99.90;;;;;;5094101;28;20043;-69
2021/10/17 01:28:15;;;;;;;13.70;8.48;;;10.30;99.90;;;;;;5094106;28;20032;-70
2021/10/17 01:30:41;;;;;;;11.27;7.55;;;10.30;99.90;;;;;;5093449;28;20105;-70
2021/10/17 01:33:07;;;;;;;13.98;7.78;;;10.20;99.90;;;;;;5093756;28;20040;-70
2021/10/17 01:35:33;;;;;;;15.73;8.18;;;10.20;99.90;;;;;;5093761;28;20032;-70
2021/10/17 01:37:59;;;;;;;15.27;7.25;;;10.30;99.90;;;;;;5093989;28;20097;-70
2021/10/17 01:40:25;;;;;;;12.88;7.32;;;10.20;99.90;;;;;;5093098;28;20040;-70
2021/10/17 01:42:50;;;;;;;15.40;8.25;;;10.20;99.90;;;;;;5093694;28;20036;-70
2021/10/17 01:45:16;;;;;;;17.17;8.38;;;10.20;99.90;;;;;;5093372;28;20403;-70
2021/10/17 01:47:49;;;;;;;20.45;8.77;;;10.10;99.90;;;;;;5092516;28;20035;-70
2021/10/17 01:50:16;;;;;;;16.65;9.02;;;10.10;99.90;;;;;;5093337;28;20035;-69
2021/10/17 01:52:42;;;;;;;16.63;8.13;;;10.10;99.90;;;;;;5092151;28;20047;-69
2021/10/17 01:55:08;;;;;;;13.38;8.13;;;10.00;99.90;;;;;;5093864;28;20032;-70
2021/10/17 01:57:34;;;;;;;19.98;9.90;;;10.10;99.90;;;;;;5093898;28;20075;-70
2021/10/17 01:59:59;;;;;;;17.75;8.77;;;10.10;99.90;;;;;;5093120;28;20063;-70
2021/10/17 02:02:25;;;;;;;17.15;8.20;;;10.10;99.90;;;;;;5093167;28;20040;-70
2021/10/17 02:04:51;;;;;;;16.63;8.48;;;10.10;99.90;;;;;;5092318;28;20142;-69
2021/10/17 02:07:16;;;;;;;17.48;7.90;;;10.10;99.90;;;;;;5093795;28;20166;-70
2021/10/17 02:09:42;;;;;;;15.43;8.48;;;10.10;99.90;;;;;;5092925;28;20050;-70
2021/10/17 02:12:08;;;;;;;16.92;9.80;;;10.10;99.90;;;;;;5093479;28;20050;-70
2021/10/17 02:14:35;;;;;;;15.13;9.25;;;10.10;99.90;;;;;;5092029;28;20036;-69
2021/10/17 02:17:02;;;;;;;15.23;8.98;;;10.10;99.90;;;;;;5093152;28;20127;-69
2021/10/17 02:19:27;;;;;;;20.73;9.27;;;10.10;99.90;;;;;;5092921;28;20077;-70
2021/10/17 02:21:53;;;;;;;20.10;8.98;;;10.10;99.90;;;;;;5093143;28;20451;-69
2021/10/17 02:24:19;;;;;;;19.70;9.30;;;10.10;99.90;;;;;;5093301;28;20047;-70
2021/10/17 02:26:45;;;;;;;18.38;9.25;;;10.10;99.90;;;;;;5093108;28;20135;-70
2021/10/17 02:29:11;;;;;;;16.73;9.13;;;10.10;99.90;;;;;;5091455;28;20036;-69
2021/10/17 02:31:36;;;;;;;15.02;8.50;;;10.10;99.90;;;;;;5096490;28;20097;-70
2021/10/17 02:34:02;;;;;;;20.00;9.63;;;10.10;99.90;;;;;;5097240;28;20036;-70
2021/10/17 02:36:28;;;;;;;15.98;8.82;;;10.10;99.90;;;;;;5097487;28;20039;-70
2021/10/17 02:38:53;;;;;;;16.20;9.40;;;10.10;99.90;;;;;;5078795;28;20047;-70
2021/10/17 02:41:19;;;;;;;18.10;9.38;;;10.10;99.90;;;;;;5095839;28;20397;-70
2021/10/17 02:43:44;;;;;;;21.08;10.18;;;10.10;99.90;;;;;;5096144;28;20036;-70
2021/10/17 02:46:10;;;;;;;15.48;10.32;;;10.10;99.90;;;;;;5095851;28;20043;-70
2021/10/17 02:48:36;;;;;;;17.40;10.02;;;10.10;99.90;;;;;;5096483;28;20044;-70
2021/10/17 02:51:01;;;;;;;18.63;9.75;;;10.10;99.90;;;;;;5095429;28;20062;-70
2021/10/17 02:53:27;;;;;;;14.40;9.15;;;10.10;99.90;;;;;;5096901;28;20040;-70
2021/10/17 02:55:53;;;;;;;20.98;10.65;;;10.00;99.90;;;;;;5096866;28;20497;-70
2021/10/17 02:58:18;;;;;;;25.60;10.45;;;10.10;99.90;;;;;;5096671;28;20039;-70
2021/10/17 03:00:44;;;;;;;16.88;9.93;;;10.10;99.90;;;;;;5096007;28;20075;-70
2021/10/17 03:03:09;;;;;;;27.38;11.20;;;10.10;99.90;;;;;;5096795;28;20476;-70
2021/10/17 03:05:35;;;;;;;19.02;10.38;;;10.10;99.90;;;;;;5096305;28;20032;-70
2021/10/17 03:08:00;;;;;;;20.65;11.45;;;10.10;99.90;;;;;;5096195;28;20093;-70
2021/10/17 03:10:26;;;;;;;22.73;11.75;;;10.10;99.90;;;;;;5095988;28;20043;-70
2021/10/17 03:12:52;;;;;;;21.02;12.25;;;10.10;99.90;;;;;;5096130;28;20047;-69
2021/10/17 03:15:18;;;;;;;18.15;11.10;;;10.10;99.90;;;;;;5096286;28;20036;-70
2021/10/17 03:17:44;;;;;;;24.80;12.45;;;10.10;99.90;;;;;;5095028;28;20044;-70
2021/10/17 03:20:11;;;;;;;20.17;12.10;;;10.10;99.90;;;;;;5095510;28;20090;-69
2021/10/17 03:22:37;;;;;;;22.13;12.00;;;10.10;99.90;;;;;;5095905;28;20400;-70
2021/10/17 03:25:04;;;;;;;22.77;11.88;;;10.20;99.90;;;;;;5095222;28;20866;-70
2021/10/17 03:27:29;;;;;;;23.40;12.38;;;10.20;99.90;;;;;;5095047;28;20044;-70
2021/10/17 03:29:55;;;;;;;23.60;11.68;;;10.20;99.90;;;;;;5095955;28;20491;-69
2021/10/17 03:32:21;;;;;;;23.05;12.70;;;10.10;99.90;;;;;;5096109;28;20118;-69
2021/10/17 03:34:47;;;;;;;24.33;13.20;;;10.10;99.90;;;;;;5094549;28;20044;-70
2021/10/17 03:37:12;;;;;;;18.63;11.93;;;10.10;99.90;;;;;;5094537;28;20119;-70
2021/10/17 03:39:38;;;;;;;20.63;12.25;;;10.10;99.90;;;;;;5095308;28;20043;-70
2021/10/17 03:42:04;;;;;;;24.88;11.73;;;10.10;99.90;;;;;;5093150;28;20085;-69
2021/10/17 03:44:30;;;;;;;24.67;11.00;;;10.10;99.90;;;;;;5095699;28;20036;-70
2021/10/17 03:46:55;;;;;;;26.08;11.27;;;10.10;99.90;;;;;;5095944;28;20539;-70
2021/10/17 03:49:21;;;;;;;22.55;12.13;;;10.00;99.90;;;;;;5095231;28;20111;-70
2021/10/17 03:51:47;;;;;;;22.83;11.02;;;10.00;99.90;;;;;;5092886;28;20059;-69
2021/10/17 03:54:13;;;;;;;22.35;12.10;;;10.10;99.90;;;;;;5094467;28;20078;-70
2021/10/17 03:56:38;;;;;;;18.08;10.65;;;10.10;99.90;;;;;;5095718;28;20067;-70
2021/10/17 03:59:04;;;;;;;20.23;9.85;;;10.10;99.90;;;;;;5095134;28;20032;-69
2021/10/17 04:01:30;;;;;;;16.83;9.52;;;10.00;99.90;;;;;;5095132;28;20090;-70
2021/10/17 04:03:56;;;;;;;15.50;8.45;;;10.00;99.90;;;;;;5095214;28;20079;-70
2021/10/17 04:06:21;;;;;;;20.02;9.65;;;10.00;99.90;;;;;;5095607;28;20032;-70
2021/10/17 04:08:47;;;;;;;19.80;9.32;;;10.00;99.90;;;;;;5095156;28;20047;-70
2021/10/17 04:11:13;;;;;;;20.60;8.90;;;10.00;99.90;;;;;;5094015;28;20059;-70
2021/10/17 04:13:39;;;;;;;15.88;8.80;;;10.00;99.90;;;;;;5094017;28;20044;-70
2021/10/17 04:16:05;;;;;;;18.08;9.30;;;10.00;99.90;;;;;;5095192;28;20377;-70
2021/10/17 04:18:31;;;;;;;17.58;9.00;;;10.00;99.90;;;;;;5093435;28;20044;-70
2021/10/17 04:20:57;;;;;;;14.68;8.23;;;10.00;99.90;;;;;;5078515;28;20072;-70
2021/10/17 04:23:23;;;;;;;16.92;9.88;;;10.00;99.90;;;;;;5073710;28;20115;-70
2021/10/17 04:25:48;;;;;;;17.67;8.80;;;10.00;99.90;;;;;;5074685;28;20107;-70
2021/10/17 04:28:14;;;;;;;16.45;8.77;;;10.00;99.90;;;;;;5074675;28;20453;-70
2021/10/17 04:30:40;;;;;;;20.42;9.43;;;10.00;99.90;;;;;;5072947;28;20041;-69
2021/10/17 04:33:05;;;;;;;15.30;8.70;;;10.00;99.90;;;;;;5074694;28;20068;-70
2021/10/17 04:35:34;;;;;;;14.48;7.93;;;10.00;99.90;;;;;;5074341;28;20534;-70
2021/10/17 04:38:00;;;;;;;15.80;8.40;;;10.00;99.90;;;;;;5074539;28;20119;-70
2021/10/17 04:40:26;;;;;;;18.67;8.23;;;10.00;99.90;;;;;;5072651;28;20053;-70
2021/10/17 04:42:52;;;;;;;16.20;8.02;;;10.00;99.90;;;;;;5074195;28;20233;-69
2021/10/17 04:45:17;;;;;;;20.63;9.40;;;10.00;99.90;;;;;;5074145;28;20536;-70
2021/10/17 04:47:43;;;;;;;17.42;8.48;;;10.00;99.90;;;;;;5074702;28;20090;-70
2021/10/17 04:50:09;;;;;;;18.02;7.95;;;10.00;99.90;;;;;;5073711;28;20051;-70
2021/10/17 04:52:34;;;;;;;16.80;8.63;;;10.10;99.90;;;;;;5073944;28;20415;-70
2021/10/17 04:55:00;;;;;;;18.45;8.15;;;10.00;99.90;;;;;;5074157;28;20044;-70
2021/10/17 04:57:25;;;;;;;13.93;7.60;;;10.10;99.90;;;;;;5074034;28;20499;-70
2021/10/17 04:59:51;;;;;;;15.30;7.60;;;10.00;99.90;;;;;;5072207;28;20040;-70
2021/10/17 05:02:17;;;;;;;16.95;8.13;;;10.00;99.90;;;;;;5073749;28;20037;-70
2021/10/17 05:04:43;;;;;;;17.05;8.20;;;10.00;99.90;;;;;;5073997;28;20128;-70
2021/10/17 05:07:09;;;;;;;12.45;8.20;;;10.00;99.90;;;;;;5072774;28;20430;-70
2021/10/17 05:09:34;;;;;;;14.55;8.32;;;10.00;99.90;;;;;;5073532;28;20134;-69
2021/10/17 05:12:00;;;;;;;15.52;7.55;;;10.00;99.90;;;;;;5073874;28;20044;-70
2021/10/17 05:14:26;;;;;;;20.30;8.88;;;10.00;99.90;;;;;;5073764;28;20067;-70
2021/10/17 05:16:51;;;;;;;17.17;7.75;;;10.10;99.90;;;;;;5072289;28;20043;-70
2021/10/17 05:19:17;;;;;;;15.45;7.60;;;10.10;99.90;;;;;;5072418;28;20037;-70
2021/10/17 05:21:43;;;;;;;15.25;8.75;;;10.00;99.90;;;;;;5073286;28;20045;-70
2021/10/17 05:24:09;;;;;;;18.67;7.88;;;10.00;99.90;;;;;;5072286;28;20120;-70
2021/10/17 05:26:35;;;;;;;14.80;8.52;;;10.10;99.90;;;;;;5073880;28;20116;-69
2021/10/17 05:29:01;;;;;;;13.75;8.00;;;10.00;99.90;;;;;;5072156;28;20029;-70
2021/10/17 05:31:27;;;;;;;19.90;8.32;;;10.10;99.90;;;;;;5072416;28;20110;-70
2021/10/17 05:33:52;;;;;;;17.33;8.40;;;10.00;99.90;;;;;;5073504;28;20489;-70
2021/10/17 05:36:18;;;;;;;14.95;7.47;;;10.10;99.90;;;;;;5073935;28;20048;-70
2021/10/17 05:38:43;;;;;;;11.90;8.10;;;10.10;99.90;;;;;;5073140;28;20120;-70
2021/10/17 05:41:09;;;;;;;15.95;8.93;;;10.10;99.90;;;;;;5073383;28;20033;-70
2021/10/17 05:43:35;;;;;;;18.20;8.10;;;10.10;99.90;;;;;;5072080;28;20046;-70
2021/10/17 05:46:01;;;;;;;14.38;7.60;;;10.10;99.90;;;;;;5072404;28;20396;-70
2021/10/17 05:48:27;;;;;;;17.48;7.57;;;10.10;99.90;;;;;;5073561;28;20036;-69
2021/10/17 05:50:52;;;;;;;19.20;7.55;;;10.10;99.90;;;;;;5073376;28;20515;-70
2021/10/17 05:53:18;;;;;;;13.25;6.68;;;10.10;99.90;;;;;;5071887;28;20048;-70
2021/10/17 05:55:44;;;;;;;13.38;7.15;;;10.10;99.90;;;;;;5073588;28;20139;-70
2021/10/17 05:58:09;;;;;;;17.00;6.95;;;10.10;99.90;;;;;;5073225;28;20496;-70
2021/10/17 06:00:35;;;;;;;13.23;6.95;;;10.10;99.90;;;;;;5072808;28;20390;-70
2021/10/17 06:03:00;;;;;;;18.65;7.43;;;10.10;99.90;;;;;;5073016;28;20036;-70
2021/10/17 06:05:26;;;;;;;13.15;7.10;;;10.10;99.90;;;;;;5073191;28;20051;-70
2021/10/17 06:07:53;;;;;;;17.65;8.30;;;10.10;99.90;;;;;;5077408;28;20044;-69
2021/10/17 06:10:18;;;;;;;14.63;7.80;;;10.10;99.90;;;;;;5077022;28;20133;-70
2021/10/17 06:12:44;;;;;;;17.50;7.95;;;10.10;99.90;;;;;;5077321;28;20488;-70
2021/10/17 06:15:10;;;;;;;19.50;7.05;;;10.10;99.90;;;;;;5077014;28;20036;-70
2021/10/17 06:17:36;;;;;;;15.88;7.03;;;10.10;99.90;;;;;;5075701;28;20119;-70
2021/10/17 06:20:02;;;;;;;15.10;7.35;;;10.10;99.90;;;;;;5076844;28;20040;-70
2021/10/17 06:22:28;;;;;;;12.98;7.28;;;10.10;99.90;;;;;;5076965;28;20047;-70
2021/10/17 06:24:53;;;;;;;12.65;7.65;;;10.10;99.90;;;;;;5075979;28;20048;-70
2021/10/17 06:27:19;;;;;;;10.70;7.28;;;10.10;99.90;;;;;;5075553;28;20503;-70
2021/10/17 06:29:45;;;;;;;18.15;7.95;;;10.10;99.90;;;;;;5076679;28;20120;-70
2021/10/17 06:32:11;;;;;;;15.93;8.10;;;10.10;99.90;;;;;;5076648;28;20044;-70
2021/10/17 06:34:37;;;;;;;16.08;8.48;;;10.10;99.90;;;;;;5076663;28;20043;-70
2021/10/17 06:37:02;;;;;;;16.27;8.02;;;10.10;99.90;;;;;;5077069;28;20504;-70
2021/10/17 06:39:28;;;;;;;14.18;8.95;;;10.10;99.90;;;;;;5076443;28;20063;-70
2021/10/17 06:41:53;;;;;;;20.58;8.07;;;10.10;99.90;;;;;;5076609;28;20378;-69
2021/10/17 06:44:19;;;;;;;14.63;7.90;;;10.10;99.90;;;;;;5075731;28;20373;-70
2021/10/17 06:46:46;;;;;;;17.30;7.82;;;10.10;99.90;;;;;;5077050;28;20029;-70
2021/10/17 06:49:12;;;;;;;17.20;8.38;;;10.10;99.90;;;;;;5076547;28;20550;-69
2021/10/17 06:51:37;;;;;;;13.18;7.93;;;10.20;99.90;;;;;;5076659;28;20037;-70
2021/10/17 06:54:03;;;;;;;16.13;9.52;;;10.20;99.90;;;;;;5076433;28;20421;-70
2021/10/17 06:56:28;;;;;;;17.88;8.02;;;10.20;99.90;;;;;;5076342;28;20515;-70
2021/10/17 06:58:54;;;;;;;16.73;8.48;;;10.20;99.90;;;;;;5076018;28;20396;-70
2021/10/17 07:01:20;;;;;;;12.70;8.35;;;10.20;99.90;;;;;;5074713;28;20050;-70
2021/10/17 07:03:45;;;;;;;15.25;8.85;;;10.20;99.90;;;;;;5076310;28;20393;-69
2021/10/17 07:06:11;;;;;;;17.40;8.25;;;10.20;99.90;;;;;;5076431;28;20476;-69
2021/10/17 07:08:36;;;;;;;17.70;8.45;;;10.20;99.90;;;;;;5076016;28;20124;-69
2021/10/17 07:11:02;;;;;;;21.77;8.95;;;10.30;99.90;;;;;;5076508;28;20047;-69
2021/10/17 07:13:27;;;;;;;17.65;7.93;;;10.20;99.90;;;;;;5076404;28;20040;-69
2021/10/17 07:15:53;;;;;;;16.90;7.93;;;10.30;99.90;;;;;;5075875;28;20071;-70
2021/10/17 07:18:19;;;;;;;20.23;8.90;;;10.30;99.90;;;;;;5076526;28;20465;-69
2021/10/17 07:20:44;;;;;;;16.77;8.48;;;10.30;99.90;;;;;;5075381;28;20051;-69
2021/10/17 07:23:10;;;;;;;15.35;8.45;;;10.30;99.90;;;;;;5076332;28;20039;-69
2021/10/17 07:25:35;;;;;;;17.38;8.13;;;10.30;99.90;;;;;;5074864;28;20124;-69
2021/10/17 07:28:01;;;;;;;18.20;7.45;;;10.30;99.90;;;;;;5075747;28;20032;-69
2021/10/17 07:30:27;;;;;;;13.85;7.97;;;10.30;99.90;;;;;;5075901;28;20484;-69
2021/10/17 07:32:52;;;;;;;16.88;8.02;;;10.40;99.90;;;;;;5075660;28;20036;-69
2021/10/17 07:35:19;;;;;;;17.63;7.68;;;10.40;99.90;;;;;;5075858;28;20040;-69
2021/10/17 07:37:44;;;;;;;14.60;8.68;;;10.40;99.90;;;;;;5074419;28;20041;-69
2021/10/17 07:40:10;;;;;;;16.08;8.32;;;10.50;99.90;;;;;;5075353;28;20043;-69
2021/10/17 07:42:36;;;;;;;15.70;7.32;;;10.50;99.90;;;;;;5074080;28;20044;-69
2021/10/17 07:45:03;;;;;;;16.88;7.75;;;10.40;99.90;;;;;;5075507;28;20043;-69
2021/10/17 07:47:32;;;;;;;13.57;7.95;;;10.50;99.90;;;;;;5075289;28;20436;-69
2021/10/17 07:49:57;;;;;;;16.20;9.38;;;10.50;99.90;;;;;;5074883;28;20555;-69
2021/10/17 07:52:23;;;;;;;16.40;7.93;;;10.50;99.90;;;;;;5075487;28;20119;-69
2021/10/17 07:54:48;;;;;;;21.05;8.73;;;10.50;99.90;;;;;;5073930;28;20083;-69
2021/10/17 07:57:14;;;;;;;16.35;8.93;;;10.50;99.90;;;;;;5074502;28;20049;-71
2021/10/17 07:59:39;;;;;;;15.15;7.88;;;10.50;99.90;;;;;;5074764;28;20554;-70
2021/10/17 08:02:06;;;;;;;18.25;8.73;;;10.50;99.90;;;;;;5074855;28;20041;-70
2021/10/17 08:04:37;;;;;;;17.27;8.43;;;10.50;99.90;;;;;;5074911;28;20465;-70
2021/10/17 08:07:03;;;;;;;16.15;8.57;;;10.50;99.90;;;;;;5073679;28;20489;-69
2021/10/17 08:09:32;;;;;;;14.80;8.20;;;10.50;99.90;;;;;;5073653;28;20047;-69
2021/10/17 08:11:58;;;;;;;13.40;8.15;;;10.50;99.90;;;;;;5073494;28;20056;-69
2021/10/17 08:14:23;;;;;;;16.25;8.70;;;10.50;99.90;;;;;;5074066;28;20041;-70
2021/10/17 08:16:49;;;;;;;19.05;8.93;;;10.50;99.90;;;;;;5073655;28;20098;-70
2021/10/17 08:19:15;;;;;;;18.85;8.23;;;10.60;99.90;;;;;;5073338;28;20454;-70
2021/10/17 08:21:40;;;;;;;14.93;7.60;;;10.50;99.90;;;;;;5074830;28;20112;-70
2021/10/17 08:24:06;;;;;;;18.35;7.40;;;10.60;99.90;;;;;;5074793;28;20040;-69
2021/10/17 08:26:33;;;;;;;13.52;7.53;;;10.60;99.90;;;;;;5074699;28;20036;-69
2021/10/17 08:28:58;;;;;;;18.33;8.77;;;10.60;99.90;;;;;;5073732;28;20566;-70
2021/10/17 08:31:24;;;;;;;17.92;8.55;;;10.60;99.90;;;;;;5074351;28;20044;-70
2021/10/17 08:33:50;;;;;;;20.23;8.80;;;10.70;99.90;;;;;;5073198;28;20048;-70
2021/10/17 08:36:15;;;;;;;16.05;8.55;;;10.70;99.90;;;;;;5074441;28;20404;-69
2021/10/17 08:38:41;;;;;;;16.95;9.10;;;10.70;99.90;;;;;;5073356;28;20052;-70
2021/10/17 08:41:07;;;;;;;19.27;9.10;;;10.70;99.90;;;;;;5074453;28;20527;-70
2021/10/17 08:43:33;;;;;;;17.45;7.50;;;10.70;99.90;;;;;;5072944;28;20044;-70
2021/10/17 08:45:58;;;;;;;16.00;8.35;;;10.70;99.90;;;;;;5074442;28;20041;-69
2021/10/17 08:48:27;;;;;;;15.40;7.47;;;10.70;99.90;;;;;;5073244;28;20040;-70
2021/10/17 08:50:53;;;;;;;13.40;7.50;;;10.70;99.90;;;;;;5072770;28;20090;-70
2021/10/17 08:53:19;;;;;;;16.70;7.70;;;10.70;99.90;;;;;;5074626;28;20507;-70
2021/10/17 08:55:45;;;;;;;20.60;8.50;;;10.80;99.90;;;;;;5073967;28;20028;-70
2021/10/17 08:58:10;;;;;;;16.58;7.97;;;10.80;99.90;;;;;;5072706;28;20049;-70
2021/10/17 09:00:37;;;;;;;18.88;8.20;;;10.80;99.90;;;;;;5073548;28;20091;-70
2021/10/17 09:03:03;;;;;;;14.00;7.80;;;10.80;99.90;;;;;;5072610;28;20085;-69
2021/10/17 09:05:43;;;;;;;16.17;8.63;;;10.90;99.90;;;;;;5074040;28;20051;-70
2021/10/17 09:08:10;;;;;;;16.15;8.40;;;10.90;99.90;;;;;;5072584;28;20119;-70
2021/10/17 09:10:37;;;;;;;12.57;8.23;;;11.00;99.90;;;;;;5073423;28;20052;-71
2021/10/17 09:13:08;;;;;;;15.15;8.30;;;11.00;99.90;;;;;;5072567;28;20076;-70
2021/10/17 09:15:34;;;;;;;15.63;8.27;;;11.10;99.90;;;;;;5072630;28;20094;-70
2021/10/17 09:18:03;;;;;;;14.85;9.05;;;11.10;99.90;;;;;;5073651;28;20040;-70
2021/10/17 09:20:28;;;;;;;15.68;7.95;;;11.10;99.90;;;;;;5071981;28;20040;-70
2021/10/17 09:23:02;;;;;;;16.50;8.32;;;11.20;99.90;;;;;;5073413;28;20090;-71
2021/10/17 09:25:35;;;;;;;16.15;7.85;;;11.20;99.90;;;;;;5056083;28;20507;-71
2021/10/17 09:28:00;;;;;;;18.58;8.85;;;11.20;99.90;;;;;;5073971;28;20044;-71
2021/10/17 09:30:26;;;;;;;16.52;7.72;;;11.30;99.90;;;;;;5055547;28;20044;-71
2021/10/17 09:33:09;;;;;;;17.27;8.85;;;11.30;99.90;;;;;;5073593;28;20041;-71
2021/10/17 09:35:35;;;;;;;17.35;8.27;;;11.30;99.90;;;;;;5073871;28;20036;-72
2021/10/17 09:38:01;;;;;;;13.63;8.05;;;11.30;99.90;;;;;;5073268;28;20052;-71
2021/10/17 09:40:28;;;;;;;20.75;7.97;;;11.40;99.90;;;;;;5072253;28;20143;-71
2021/10/17 09:43:13;;;;;;;17.13;7.20;;;11.40;99.90;;;;;;5073292;28;20481;-71
2021/10/17 09:45:40;;;;;;;14.23;7.20;;;11.40;99.90;;;;;;5072342;28;20040;-71
2021/10/17 09:48:06;;;;;;;18.63;7.72;;;11.50;99.90;;;;;;5072334;28;20043;-71
2021/10/17 09:50:33;;;;;;;18.70;7.35;;;11.40;99.90;;;;;;5073003;28;20404;-71
2021/10/17 09:53:01;;;;;;;16.58;9.05;;;11.50;99.90;;;;;;5071890;28;20404;-70
2021/10/17 09:55:27;;;;;;;19.13;7.75;;;11.60;99.90;;;;;;5073154;28;20040;-72
2021/10/17 09:57:53;;;;;;;14.50;7.55;;;11.50;99.90;;;;;;5073803;28;20078;-71
2021/10/17 10:00:19;;;;;;;16.17;7.47;;;11.50;99.90;;;;;;5072094;28;20041;-71
2021/10/17 10:02:46;;;;;;;19.63;8.90;;;11.50;99.90;;;;;;5073063;28;20401;-72
2021/10/17 10:05:14;;;;;;;14.90;8.50;;;11.50;99.90;;;;;;5073149;28;20048;-70
2021/10/17 10:07:43;;;;;;;14.80;7.85;;;11.50;99.90;;;;;;5073324;28;20068;-71
2021/10/17 10:10:10;;;;;;;14.43;6.97;;;11.50;99.90;;;;;;5072994;28;20044;-70
2021/10/17 10:12:39;;;;;;;13.95;7.72;;;11.50;99.90;;;;;;5073185;28;20037;-70
2021/10/17 10:15:06;;;;;;;15.60;7.57;;;11.60;99.90;;;;;;5071892;28;20048;-71
2021/10/17 10:17:33;;;;;;;16.13;8.15;;;11.60;99.90;;;;;;5072885;28;20408;-70
2021/10/17 10:19:59;;;;;;;20.75;7.50;;;11.60;99.90;;;;;;5072953;28;20041;-70
2021/10/17 10:22:25;;;;;;;16.17;8.52;;;11.60;99.90;;;;;;5072903;28;20032;-69
2021/10/17 10:24:53;;;;;;;20.77;8.00;;;11.50;99.90;;;;;;5073310;28;20474;-69
2021/10/17 10:27:20;;;;;;;13.65;8.23;;;11.60;99.90;;;;;;5073385;28;20033;-70
2021/10/17 10:29:46;;;;;;;13.52;7.40;;;11.60;99.90;;;;;;5072847;28;20036;-71
2021/10/17 10:32:25;;;;;;;16.02;7.32;;;11.60;99.90;;;;;;5073185;28;20052;-70
2021/10/17 10:34:52;;;;;;;12.88;7.68;;;11.60;99.90;;;;;;5071827;28;20504;-70
2021/10/17 10:37:26;;;;;;;12.30;7.38;;;11.60;99.90;;;;;;5072627;28;20040;-70
2021/10/17 10:40:02;;;;;;;14.27;7.15;;;11.60;99.90;;;;;;5072546;28;20086;-70
2021/10/17 10:42:51;;;;;;;14.48;8.07;;;11.60;99.90;;;;;;5071486;28;20052;-71
2021/10/17 10:45:33;;;;;;;18.52;8.38;;;11.60;99.90;;;;;;5072001;28;20141;-70
2021/10/17 10:48:13;;;;;;;19.85;8.38;;;11.60;99.90;;;;;;5073049;28;20119;-70
2021/10/17 10:50:54;;;;;;;19.52;7.95;;;11.60;99.90;;;;;;5071389;28;20094;-70
2021/10/17 10:53:50;;;;;;;24.17;8.65;;;11.70;99.90;;;;;;5076628;28;20060;-71
2021/10/17 10:56:43;;;;;;;11.65;7.55;;;11.70;99.90;;;;;;5075654;28;20051;-70
2021/10/17 10:59:10;;;;;;;10.93;6.60;;;11.80;99.90;;;;;;5075903;28;20037;-70
2021/10/17 11:02:02;;;;;;;16.08;6.85;;;11.80;99.90;;;;;;5074891;28;20400;-70
2021/10/17 11:04:44;;;;;;;15.65;8.18;;;11.90;99.90;;;;;;5074992;28;20048;-69
2021/10/17 11:07:29;;;;;;;12.90;7.38;;;12.00;99.90;;;;;;5075078;28;20044;-69
2021/10/17 11:09:57;;;;;;;12.23;7.10;;;12.00;99.90;;;;;;5076170;28;20037;-70
2021/10/17 11:12:41;;;;;;;15.13;7.50;;;12.10;99.90;;;;;;5091972;28;20860;-69
2021/10/17 11:15:07;;;;;;;;;;;12.10;99.90;;;;;;5076621;28;20044;-69
2021/10/17 11:17:33;;;;;;;13.50;6.53;;;12.10;99.90;;;;;;5075858;28;19958;-70
2021/10/17 11:19:58;;;;;;;18.17;8.25;;;12.10;99.90;;;;;;5075416;28;20047;-69
2021/10/17 11:22:24;;;;;;;14.25;6.68;;;12.20;99.90;;;;;;5076003;28;20051;-69
2021/10/17 11:24:51;;;;;;;14.55;7.38;;;12.30;99.90;;;;;;5075863;28;20040;-69
2021/10/17 11:27:17;;;;;;;11.38;6.57;;;12.20;99.90;;;;;;5075572;28;20036;-69
2021/10/17 11:29:44;;;;;;;10.93;6.30;;;12.30;99.90;;;;;;5075163;28;20449;-69
2021/10/17 11:32:16;;;;;;;12.82;6.38;;;12.30;99.90;;;;;;5075549;28;20374;-71
2021/10/17 11:34:54;;;;;;;11.43;6.13;;;12.40;99.90;;;;;;5075725;28;20051;-70
2021/10/17 11:37:26;;;;;;;13.40;5.78;;;12.40;99.90;;;;;;5075788;28;20041;-70
2021/10/17 11:40:08;;;;;;;11.07;5.95;;;12.40;99.90;;;;;;5075161;28;20037;-69
2021/10/17 11:42:49;;;;;;;11.88;6.40;;;12.60;99.90;;;;;;5074016;28;20102;-69
2021/10/17 11:45:25;;;;;;;15.18;6.18;;;12.50;99.90;;;;;;5075440;28;20514;-70
2021/10/17 11:47:52;;;;;;;10.75;6.53;;;12.60;99.90;;;;;;5075486;28;20470;-70
2021/10/17 11:50:42;;;;;;;11.07;6.20;;;12.60;99.90;;;;;;5073907;28;20036;-70
2021/10/17 11:53:12;;;;;;;12.20;5.50;;;12.60;99.90;;;;;;5073814;28;20126;-70
2021/10/17 11:55:41;;;;;;;8.90;5.72;;;12.60;99.90;;;;;;5075056;28;20117;-70
2021/10/17 11:58:26;;;;;;;11.70;5.75;;;12.50;99.90;;;;;;5075605;28;20037;-70
2021/10/17 12:01:12;;;;;;;14.57;6.13;;;12.50;99.90;;;;;;5074945;28;20497;-70
2021/10/17 12:03:53;;;;;;;12.35;5.47;;;12.50;99.90;;;;;;5073755;28;20041;-70
2021/10/17 12:06:21;;;;;;;13.30;6.50;;;12.50;99.90;;;;;;5075331;28;20037;-69
2021/10/17 12:09:02;;;;;;;15.75;6.57;;;12.40;99.90;;;;;;5074860;28;20041;-69
2021/10/17 12:11:29;;;;;;;14.50;5.70;;;12.40;99.90;;;;;;5074884;28;20036;-70
2021/10/17 12:13:59;;;;;;;9.48;5.93;;;12.40;99.90;;;;;;5075510;28;20094;-70
2021/10/17 12:16:27;;;;;;;11.40;5.03;;;12.40;99.90;;;;;;5074885;28;20503;-70
2021/10/17 12:19:02;;;;;;;7.75;5.20;;;12.40;99.90;;;;;;5074402;28;20097;-70
2021/10/17 12:21:34;;;;;;;12.00;5.53;;;12.40;99.90;;;;;;5074886;28;20036;-70
2021/10/17 12:24:00;;;;;;;14.15;6.95;;;12.50;99.90;;;;;;5073579;28;20051;-69
2021/10/17 12:26:29;;;;;;;9.40;5.20;;;12.50;99.90;;;;;;5073141;28;20492;-70
2021/10/17 12:29:10;;;;;;;12.32;5.40;;;12.50;99.90;;;;;;5074249;28;20048;-70
2021/10/17 12:31:38;;;;;;;16.02;5.57;;;12.60;99.90;;;;;;5073118;28;20123;-69
2021/10/17 12:34:06;;;;;;;12.32;6.07;;;12.60;99.90;;;;;;5074340;28;20041;-69
2021/10/17 12:36:32;;;;;;;13.63;5.47;;;12.70;99.90;;;;;;5074374;28;20036;-70